Time;durP1;ratioP1;P1;durP2;ratioP2;P2;SDS_P1;SDS_P2;PMS_P1;PMS_P2;Temp;Humidity;BMP_temperature;BMP_pressure;BME280_temperature;BME280_humidity;BME280_pressure;Samples;Min_cycle;Max_cycle;Signal;HPM_P1;HPM_P2
2021/12/12 00:00:04;;;;;;;31.75;17.10;;;3.80;99.90;;;;;;5114204;28;20191;-59
2021/12/12 00:02:45;;;;;;;40.95;22.25;;;3.80;99.90;;;;;;5130653;27;20040;-60
2021/12/12 00:05:14;;;;;;;28.55;16.17;;;3.80;99.90;;;;;;5114685;27;20105;-60
2021/12/12 00:07:40;;;;;;;42.65;25.02;;;3.90;99.90;;;;;;5129945;27;20120;-63
2021/12/12 00:10:14;;;;;;;36.83;21.17;;;3.80;99.90;;;;;;5114089;28;20071;-59
2021/12/12 00:12:44;;;;;;;34.83;19.45;;;3.90;99.90;;;;;;5114362;28;20036;-63
2021/12/12 00:15:12;;;;;;;38.15;17.55;;;3.90;99.90;;;;;;5130384;27;20043;-59
2021/12/12 00:17:38;;;;;;;36.08;21.20;;;4.00;99.90;;;;;;5113222;28;20107;-60
2021/12/12 00:20:07;;;;;;;44.53;24.08;;;3.90;99.90;;;;;;5112741;28;20044;-59
2021/12/12 00:22:33;;;;;;;36.58;22.10;;;3.90;99.90;;;;;;5113933;28;20129;-60
2021/12/12 00:24:58;;;;;;;33.22;20.42;;;3.90;99.90;;;;;;5113498;28;20516;-59
2021/12/12 00:27:26;;;;;;;46.50;23.88;;;3.90;99.90;;;;;;5095800;28;20081;-60
2021/12/12 00:29:52;;;;;;;37.65;21.13;;;4.00;99.90;;;;;;5113628;28;20151;-59
2021/12/12 00:32:21;;;;;;;36.60;20.80;;;3.90;99.90;;;;;;5114034;28;20044;-58
2021/12/12 00:34:51;;;;;;;35.33;18.33;;;3.90;99.90;;;;;;5112603;28;20077;-59
2021/12/12 00:37:18;;;;;;;27.60;13.93;;;3.90;99.90;;;;;;5113589;28;20385;-58
2021/12/12 00:39:50;;;;;;;32.15;17.45;;;4.00;99.90;;;;;;5113447;28;20536;-62
2021/12/12 00:42:23;;;;;;;33.45;20.40;;;3.90;99.90;;;;;;5113840;28;20047;-59
2021/12/12 00:44:53;;;;;;;39.63;23.20;;;4.00;99.90;;;;;;5113487;28;20370;-58
2021/12/12 00:47:19;;;;;;;34.88;20.42;;;4.00;99.90;;;;;;5113679;28;20039;-58
2021/12/12 00:49:46;;;;;;;46.00;23.65;;;4.00;99.90;;;;;;5113584;28;20040;-62
2021/12/12 00:52:15;;;;;;;26.42;16.10;;;4.00;99.90;;;;;;5113164;28;20059;-59
2021/12/12 00:54:45;;;;;;;38.53;22.40;;;4.00;99.90;;;;;;5113675;27;20039;-59
2021/12/12 00:57:16;;;;;;;33.53;18.33;;;4.00;99.90;;;;;;5113537;28;20047;-60
2021/12/12 00:59:44;;;;;;;28.55;16.65;;;4.00;99.90;;;;;;5112480;28;20450;-60
2021/12/12 01:02:15;;;;;;;52.08;23.77;;;4.10;99.90;;;;;;5112820;28;20443;-59
2021/12/12 01:04:45;;;;;;;36.30;22.10;;;4.10;99.90;;;;;;5112552;28;20139;-61
2021/12/12 01:07:16;;;;;;;44.63;23.83;;;4.10;99.90;;;;;;5113100;28;20052;-60
2021/12/12 01:09:48;;;;;;;39.83;21.70;;;4.10;99.90;;;;;;5113003;28;20051;-59
2021/12/12 01:12:19;;;;;;;39.78;21.50;;;4.10;99.90;;;;;;5113043;28;20083;-59
2021/12/12 01:14:51;;;;;;;41.20;21.45;;;4.10;99.90;;;;;;5113209;28;20122;-59
2021/12/12 01:17:34;;;;;;;36.85;20.65;;;4.10;99.90;;;;;;5112097;28;20048;-61
2021/12/12 01:20:10;;;;;;;31.30;16.73;;;4.20;99.90;;;;;;5111731;28;20054;-59
2021/12/12 01:22:37;;;;;;;37.80;20.90;;;4.20;99.90;;;;;;5113186;28;20118;-59
2021/12/12 01:25:43;;;;;;;41.28;23.23;;;4.10;99.90;;;;;;5112615;27;20047;-60
2021/12/12 01:28:09;;;;;;;;;;;4.20;99.90;;;;;;5103901;28;20057;-59
2021/12/12 01:30:35;;;;;;;39.83;22.50;;;4.10;99.90;;;;;;5113014;28;19969;-59
2021/12/12 01:33:01;;;;;;;49.58;23.13;;;4.20;99.90;;;;;;5112734;28;20437;-60
2021/12/12 01:35:27;;;;;;;37.08;20.02;;;4.20;99.90;;;;;;5111832;28;20047;-60
2021/12/12 01:40:49;;;;;;;39.60;21.77;;;4.10;99.90;;;;;;5112873;27;20464;-60
2021/12/12 01:43:32;;;;;;;35.10;20.83;;;4.20;99.90;;;;;;5111258;28;20075;-59
2021/12/12 01:46:12;;;;;;;40.92;22.65;;;4.20;99.90;;;;;;5111372;28;20093;-60
2021/12/12 01:48:45;;;;;;;36.80;21.08;;;4.10;99.90;;;;;;5111789;28;20079;-59
2021/12/12 01:51:13;;;;;;;39.35;23.58;;;4.20;99.90;;;;;;5111160;28;20066;-59
2021/12/12 01:53:48;;;;;;;30.02;18.75;;;4.20;99.90;;;;;;5112555;28;20044;-60
2021/12/12 01:56:42;;;;;;;45.22;20.15;;;4.20;99.90;;;;;;5112324;28;20128;-59
2021/12/12 01:59:09;;;;;;;34.17;20.17;;;4.20;99.90;;;;;;5112668;28;20100;-59
2021/12/12 02:01:41;;;;;;;36.67;18.90;;;4.20;99.90;;;;;;5112384;28;20127;-59
2021/12/12 02:04:29;;;;;;;42.15;21.73;;;4.20;99.90;;;;;;5111406;28;20042;-59
2021/12/12 02:06:55;;;;;;;42.45;22.05;;;4.20;99.90;;;;;;5111928;28;20058;-59
2021/12/12 02:09:23;;;;;;;40.58;23.13;;;4.20;99.90;;;;;;5112488;28;20058;-59
2021/12/12 02:11:52;;;;;;;39.10;22.38;;;4.20;99.90;;;;;;5111830;28;20131;-60
2021/12/12 02:14:20;;;;;;;45.80;22.60;;;4.50;99.90;;;;;;5110958;28;20052;-60
2021/12/12 02:16:55;;;;;;;39.80;21.02;;;4.20;99.90;;;;;;5112054;28;20122;-59
2021/12/12 02:19:42;;;;;;;39.38;23.90;;;4.20;99.90;;;;;;5112257;28;20481;-59
2021/12/12 02:23:00;;;;;;;47.80;23.08;;;4.20;99.90;;;;;;5110876;28;20044;-58
2021/12/12 02:36:11;;;;;;;31.73;17.83;;;4.30;99.90;;;;;;5111547;28;20143;-59
2021/12/12 02:38:37;;;;;;;31.23;17.60;;;4.30;99.90;;;;;;5112025;28;20079;-59
2021/12/12 02:41:09;;;;;;;41.05;19.23;;;4.40;99.90;;;;;;5093568;28;20047;-60
2021/12/12 02:43:40;;;;;;;41.70;18.70;;;4.40;99.90;;;;;;5111748;28;20051;-59
2021/12/12 02:46:07;;;;;;;44.30;22.35;;;4.30;99.90;;;;;;5111498;28;20047;-60
2021/12/12 02:48:37;;;;;;;36.38;21.08;;;4.40;99.90;;;;;;5111815;28;20044;-60
2021/12/12 02:51:08;;;;;;;31.92;17.40;;;4.30;99.90;;;;;;5111428;28;20056;-60
2021/12/12 02:53:38;;;;;;;43.25;22.92;;;4.40;99.90;;;;;;5110695;28;20393;-60
2021/12/12 02:56:11;;;;;;;34.60;18.40;;;4.40;99.90;;;;;;5110094;28;20048;-61
2021/12/12 02:58:38;;;;;;;33.05;17.63;;;4.40;99.90;;;;;;5110300;28;20054;-59
2021/12/12 03:01:18;;;;;;;38.00;19.38;;;4.40;99.90;;;;;;5109646;28;20055;-62
2021/12/12 03:03:45;;;;;;;35.72;17.45;;;4.50;99.90;;;;;;5110425;28;20425;-59
2021/12/12 03:06:15;;;;;;;31.85;15.75;;;4.50;99.90;;;;;;5110995;28;20143;-59
2021/12/12 03:08:44;;;;;;;33.15;17.75;;;4.50;99.90;;;;;;5110290;28;20063;-59
2021/12/12 03:11:10;;;;;;;38.40;20.95;;;4.50;99.90;;;;;;5110041;28;20418;-60
2021/12/12 03:13:36;;;;;;;28.83;16.10;;;4.70;99.90;;;;;;5109993;28;20044;-59
2021/12/12 03:16:03;;;;;;;30.73;17.13;;;4.50;99.90;;;;;;5114046;28;20051;-60
2021/12/12 03:18:39;;;;;;;34.25;17.10;;;4.50;99.90;;;;;;5113916;28;20048;-59
2021/12/12 03:21:32;;;;;;;37.63;18.98;;;4.50;99.90;;;;;;5115325;28;20151;-64
2021/12/12 03:24:06;;;;;;;32.15;15.40;;;4.50;99.90;;;;;;5114187;28;20051;-60
2021/12/12 03:26:32;;;;;;;32.65;15.45;;;4.60;99.90;;;;;;5115014;28;20062;-59
2021/12/12 03:28:58;;;;;;;25.38;16.63;;;4.50;99.90;;;;;;5097403;28;20131;-59
2021/12/12 03:31:32;;;;;;;31.58;15.60;;;4.60;99.90;;;;;;5114716;28;20119;-60
2021/12/12 03:34:00;;;;;;;29.67;16.48;;;4.60;99.90;;;;;;5115327;28;20054;-60
2021/12/12 03:36:27;;;;;;;21.73;12.85;;;4.60;99.90;;;;;;5114879;28;20100;-60
2021/12/12 03:38:59;;;;;;;29.10;16.10;;;4.60;99.90;;;;;;5115119;28;20535;-60
2021/12/12 03:41:29;;;;;;;27.10;15.55;;;4.60;99.90;;;;;;5114365;28;20082;-59
2021/12/12 03:44:00;;;;;;;27.05;16.48;;;4.70;99.90;;;;;;5115017;28;20082;-60
2021/12/12 03:46:26;;;;;;;29.25;14.98;;;4.70;99.90;;;;;;5114687;28;20043;-60
2021/12/12 03:48:52;;;;;;;25.67;11.40;;;4.70;99.90;;;;;;5113718;28;20462;-60
2021/12/12 03:51:23;;;;;;;21.42;11.68;;;4.70;99.90;;;;;;5112907;28;20055;-60
2021/12/12 03:53:49;;;;;;;29.45;13.40;;;4.80;99.90;;;;;;5114923;28;20401;-60
2021/12/12 03:56:16;;;;;;;29.00;16.30;;;4.70;99.90;;;;;;5114380;28;20070;-60
2021/12/12 03:58:43;;;;;;;28.23;16.33;;;4.70;99.90;;;;;;5114238;28;20055;-61
2021/12/12 04:01:14;;;;;;;28.98;15.75;;;4.70;99.90;;;;;;5114613;27;20052;-62
2021/12/12 04:03:41;;;;;;;21.02;10.57;;;4.80;99.90;;;;;;5114501;28;20039;-59
2021/12/12 04:06:12;;;;;;;30.08;15.65;;;4.80;99.90;;;;;;5114326;28;20112;-59
2021/12/12 04:08:41;;;;;;;20.75;13.40;;;4.80;99.90;;;;;;5130410;27;20054;-58
2021/12/12 04:11:14;;;;;;;22.38;12.82;;;4.80;99.90;;;;;;5114038;28;20132;-58
2021/12/12 04:13:45;;;;;;;22.83;13.50;;;4.80;99.90;;;;;;5114411;28;20472;-58
2021/12/12 04:16:12;;;;;;;24.00;12.48;;;4.80;99.90;;;;;;5112673;28;20048;-62
2021/12/12 04:18:39;;;;;;;23.85;13.25;;;4.90;99.90;;;;;;5113346;28;20075;-58
2021/12/12 04:21:05;;;;;;;22.33;12.25;;;4.80;99.90;;;;;;5114079;28;20056;-58
2021/12/12 04:23:31;;;;;;;19.60;10.27;;;4.90;99.90;;;;;;5112444;28;20431;-59
2021/12/12 04:26:25;;;;;;;19.65;11.25;;;4.90;99.90;;;;;;5111926;28;20090;-62
2021/12/12 04:29:00;;;;;;;17.05;11.90;;;4.90;99.90;;;;;;5113066;28;20126;-58
2021/12/12 04:31:26;;;;;;;19.85;12.55;;;4.90;99.90;;;;;;5112081;28;20461;-58
2021/12/12 04:33:52;;;;;;;20.48;12.88;;;4.90;99.90;;;;;;5112596;28;20120;-59
2021/12/12 04:36:28;;;;;;;18.30;11.35;;;4.90;99.90;;;;;;5113315;28;20051;-59
2021/12/12 04:39:22;;;;;;;19.25;11.68;;;4.90;99.90;;;;;;5113816;28;20051;-60
2021/12/12 04:41:51;;;;;;;26.83;12.25;;;4.90;99.90;;;;;;5113065;28;20095;-59
2021/12/12 04:44:22;;;;;;;21.25;12.40;;;4.90;99.90;;;;;;5112173;28;20161;-61
2021/12/12 04:49:56;;;;;;;15.48;9.23;;;4.90;99.90;;;;;;5113787;27;20113;-59
2021/12/12 04:52:51;;;;;;;15.85;10.43;;;4.80;99.90;;;;;;5112789;28;20444;-59
2021/12/12 04:55:33;;;;;;;16.92;10.95;;;4.80;99.90;;;;;;5077641;28;20492;-63
2021/12/12 04:58:14;;;;;;;13.38;8.57;;;4.80;99.90;;;;;;5113404;28;20404;-59
2021/12/12 05:00:51;;;;;;;16.65;10.95;;;4.80;99.90;;;;;;5113187;27;20406;-60
2021/12/12 05:03:55;;;;;;;13.32;9.43;;;4.90;99.90;;;;;;5112667;28;20040;-63
2021/12/12 05:06:56;;;;;;;12.75;8.85;;;4.80;99.90;;;;;;5111387;28;20087;-60
2021/12/12 05:09:50;;;;;;;16.27;11.60;;;4.80;99.90;;;;;;5056818;28;20536;-60
2021/12/12 05:12:21;;;;;;;14.35;9.27;;;4.80;99.90;;;;;;5112077;28;20056;-60
2021/12/12 05:14:56;;;;;;;18.58;12.68;;;4.80;99.90;;;;;;5129447;27;20499;-59
2021/12/12 05:17:31;;;;;;;15.98;11.77;;;4.80;99.90;;;;;;5112732;28;20134;-60
2021/12/12 05:20:03;;;;;;;16.98;10.32;;;4.80;99.90;;;;;;5113350;28;20040;-58
2021/12/12 05:22:36;;;;;;;13.38;8.98;;;4.90;99.90;;;;;;5112549;28;20039;-59
2021/12/12 05:25:06;;;;;;;16.20;10.05;;;4.90;99.90;;;;;;5095093;28;20051;-59
2021/12/12 05:27:34;;;;;;;16.98;10.45;;;4.90;99.90;;;;;;5111405;28;20055;-59
2021/12/12 05:30:06;;;;;;;12.32;8.93;;;4.90;99.90;;;;;;5111674;28;20055;-59
2021/12/12 05:32:34;;;;;;;12.90;8.32;;;4.90;99.90;;;;;;5112331;28;20060;-59
2021/12/12 05:35:02;;;;;;;13.60;9.38;;;4.90;99.90;;;;;;5111643;28;20449;-59
2021/12/12 05:37:28;;;;;;;14.65;10.27;;;4.90;99.90;;;;;;5111305;28;20047;-59
2021/12/12 05:40:00;;;;;;;14.73;9.55;;;4.90;99.90;;;;;;5111284;28;20109;-60
2021/12/12 05:42:27;;;;;;;12.02;9.15;;;5.00;99.90;;;;;;5112521;28;20081;-59
2021/12/12 05:44:53;;;;;;;13.88;8.82;;;5.00;99.90;;;;;;5112846;28;20592;-60
2021/12/12 05:47:19;;;;;;;13.38;9.75;;;5.00;99.90;;;;;;5112858;28;20055;-62
2021/12/12 05:49:46;;;;;;;13.95;9.57;;;5.00;99.90;;;;;;5111249;28;20066;-62
2021/12/12 05:52:15;;;;;;;14.95;9.88;;;5.00;99.90;;;;;;5111091;28;20055;-62
2021/12/12 05:54:41;;;;;;;16.73;10.20;;;5.00;99.90;;;;;;5112284;28;20099;-59
2021/12/12 05:57:09;;;;;;;15.43;10.23;;;5.00;99.90;;;;;;5128406;27;20047;-59
2021/12/12 05:59:37;;;;;;;13.98;9.95;;;5.00;99.90;;;;;;5111998;28;20075;-60
2021/12/12 06:02:05;;;;;;;14.63;9.25;;;5.10;99.90;;;;;;5128019;27;20408;-59
2021/12/12 06:04:31;;;;;;;13.98;9.13;;;5.10;99.90;;;;;;5110659;28;20141;-59
2021/12/12 06:06:57;;;;;;;17.00;11.48;;;5.20;99.90;;;;;;5112196;28;20139;-58
2021/12/12 06:09:24;;;;;;;13.55;10.40;;;5.20;99.90;;;;;;5110888;28;20066;-59
2021/12/12 06:11:52;;;;;;;13.27;8.38;;;5.30;99.90;;;;;;5093911;28;20056;-59
2021/12/12 06:14:18;;;;;;;16.48;9.45;;;5.30;99.90;;;;;;5127916;27;20493;-60
2021/12/12 06:16:46;;;;;;;11.90;8.63;;;5.30;99.90;;;;;;5111652;28;20040;-58
2021/12/12 06:19:19;;;;;;;13.02;9.10;;;5.30;99.90;;;;;;5111763;28;20058;-60
2021/12/12 06:21:48;;;;;;;15.40;9.98;;;5.30;99.90;;;;;;5111515;28;20048;-59
2021/12/12 06:24:14;;;;;;;16.88;10.15;;;5.30;99.90;;;;;;5111971;28;20043;-60
2021/12/12 06:26:40;;;;;;;13.77;10.13;;;5.30;99.90;;;;;;5110581;28;20044;-61
2021/12/12 06:29:07;;;;;;;14.55;10.90;;;5.30;99.90;;;;;;5111950;28;20044;-59
2021/12/12 06:31:39;;;;;;;10.82;7.75;;;5.30;99.90;;;;;;5111370;28;20051;-60
2021/12/12 06:34:06;;;;;;;13.40;9.05;;;5.30;99.90;;;;;;5110383;28;20051;-59
2021/12/12 06:36:33;;;;;;;13.65;9.30;;;5.30;99.90;;;;;;5109978;28;20104;-60
2021/12/12 06:38:59;;;;;;;14.18;10.45;;;5.40;99.90;;;;;;5111949;28;20043;-59
2021/12/12 06:41:25;;;;;;;13.23;9.15;;;5.40;99.90;;;;;;5111746;28;20514;-61
2021/12/12 06:43:52;;;;;;;14.05;10.23;;;5.40;99.90;;;;;;5110094;28;20043;-60
2021/12/12 06:46:19;;;;;;;14.30;9.85;;;5.40;99.90;;;;;;5110722;28;20126;-60
2021/12/12 06:48:46;;;;;;;12.23;8.93;;;5.40;99.90;;;;;;5127987;27;20488;-60
2021/12/12 06:51:12;;;;;;;13.48;9.40;;;5.40;99.90;;;;;;5118549;27;20054;-60
2021/12/12 06:53:40;;;;;;;14.48;9.75;;;5.50;99.90;;;;;;5117102;28;20083;-59
2021/12/12 06:56:08;;;;;;;13.90;9.23;;;5.50;99.90;;;;;;5118474;27;20051;-59
2021/12/12 06:58:35;;;;;;;13.65;9.23;;;5.50;99.90;;;;;;5133827;27;20047;-60
2021/12/12 07:01:11;;;;;;;13.30;8.82;;;5.50;99.90;;;;;;5118424;27;20054;-60
2021/12/12 07:03:38;;;;;;;14.65;10.52;;;5.50;99.90;;;;;;5117966;27;20084;-60
2021/12/12 07:06:05;;;;;;;14.50;9.20;;;5.60;99.90;;;;;;5117936;27;20050;-59
2021/12/12 07:08:31;;;;;;;14.80;10.88;;;5.60;99.90;;;;;;5117950;27;20477;-60
2021/12/12 07:10:57;;;;;;;14.07;8.93;;;5.60;99.90;;;;;;5116611;28;20153;-61
2021/12/12 07:13:24;;;;;;;13.60;8.90;;;5.60;99.90;;;;;;5117378;28;20051;-60
2021/12/12 07:15:53;;;;;;;13.70;10.82;;;5.70;99.90;;;;;;5116732;28;20047;-59
2021/12/12 07:18:28;;;;;;;16.67;10.80;;;5.70;99.90;;;;;;5117296;28;20591;-60
2021/12/12 07:20:59;;;;;;;13.40;10.20;;;5.70;99.90;;;;;;5117820;27;20047;-60
2021/12/12 07:23:26;;;;;;;15.73;11.30;;;5.70;99.90;;;;;;5117769;27;20043;-60
2021/12/12 07:25:53;;;;;;;17.83;11.93;;;5.70;99.90;;;;;;5117382;27;20058;-62
2021/12/12 07:28:19;;;;;;;16.63;11.40;;;5.70;99.90;;;;;;5116917;28;20055;-61
2021/12/12 07:30:46;;;;;;;17.05;12.05;;;5.70;99.90;;;;;;5117931;27;20051;-61
2021/12/12 07:33:13;;;;;;;15.40;11.02;;;5.70;99.90;;;;;;5099486;28;20130;-60
2021/12/12 07:35:42;;;;;;;16.95;11.52;;;5.70;99.90;;;;;;5099564;28;20395;-61
2021/12/12 07:38:13;;;;;;;17.58;11.93;;;5.80;99.90;;;;;;5118122;27;20443;-60
2021/12/12 07:40:39;;;;;;;16.95;11.68;;;5.80;99.90;;;;;;5117595;27;20047;-63
2021/12/12 07:43:06;;;;;;;19.35;11.30;;;5.80;99.90;;;;;;5116548;28;20433;-60
2021/12/12 07:45:33;;;;;;;17.83;11.38;;;5.80;99.90;;;;;;5117890;27;20058;-60
2021/12/12 07:48:00;;;;;;;19.45;11.57;;;5.80;99.90;;;;;;5117609;27;20594;-59
2021/12/12 07:50:27;;;;;;;17.50;11.10;;;5.80;99.90;;;;;;5116745;28;20557;-59
2021/12/12 07:52:54;;;;;;;22.35;11.85;;;5.80;99.90;;;;;;5115899;28;20101;-60
2021/12/12 07:55:21;;;;;;;19.65;12.45;;;5.90;99.90;;;;;;5117631;27;20448;-59
2021/12/12 07:57:47;;;;;;;21.08;12.80;;;5.90;99.90;;;;;;5116527;27;20676;-59
2021/12/12 08:00:17;;;;;;;22.55;12.55;;;5.90;99.90;;;;;;5132520;27;20047;-61
2021/12/12 08:02:45;;;;;;;17.95;11.60;;;5.90;99.90;;;;;;5113478;28;20071;-60
2021/12/12 08:05:16;;;;;;;20.50;11.98;;;5.90;99.90;;;;;;5113007;28;20048;-59
2021/12/12 08:07:43;;;;;;;20.25;12.35;;;6.00;99.90;;;;;;5112789;28;20066;-60
2021/12/12 08:10:11;;;;;;;24.15;13.93;;;6.00;99.90;;;;;;5113134;28;20048;-60
2021/12/12 08:12:46;;;;;;;22.35;13.57;;;5.90;99.90;;;;;;5114642;28;20069;-61
2021/12/12 08:15:12;;;;;;;;;;;6.00;99.90;;;;;;5114795;28;20047;-60
2021/12/12 08:17:40;;;;;;;22.10;13.18;;;6.00;99.90;;;;;;5114018;28;19920;-60
2021/12/12 08:20:07;;;;;;;18.95;11.15;;;6.00;99.90;;;;;;5114396;28;20051;-60
2021/12/12 08:22:34;;;;;;;22.35;13.35;;;6.10;99.90;;;;;;5112499;28;20461;-61
2021/12/12 08:25:02;;;;;;;21.98;12.95;;;6.10;99.90;;;;;;5113437;28;20135;-59
2021/12/12 08:27:28;;;;;;;23.10;13.50;;;6.10;99.90;;;;;;5112937;28;20039;-59
2021/12/12 08:29:55;;;;;;;20.40;13.25;;;6.10;99.90;;;;;;5113297;28;20180;-60
2021/12/12 08:32:23;;;;;;;22.58;13.98;;;6.10;99.90;;;;;;5113619;28;20087;-60
2021/12/12 08:34:50;;;;;;;25.25;13.95;;;6.20;99.90;;;;;;5113420;28;20047;-60
2021/12/12 08:37:17;;;;;;;29.42;14.30;;;6.10;99.90;;;;;;5112882;28;20071;-59
2021/12/12 08:39:43;;;;;;;20.70;12.10;;;6.20;99.90;;;;;;5114027;28;20122;-59
2021/12/12 08:42:09;;;;;;;28.33;15.38;;;6.20;99.90;;;;;;5114027;28;20430;-59
2021/12/12 08:44:36;;;;;;;23.73;13.85;;;6.20;99.90;;;;;;5113783;28;20043;-60
2021/12/12 08:47:04;;;;;;;23.42;14.13;;;6.30;99.90;;;;;;5113344;28;20431;-59
2021/12/12 08:49:32;;;;;;;27.15;15.20;;;6.30;99.90;;;;;;5113767;28;20047;-59
2021/12/12 08:52:10;;;;;;;27.13;14.50;;;6.30;99.90;;;;;;5129139;27;20083;-59
2021/12/12 08:54:40;;;;;;;29.58;15.55;;;6.30;99.90;;;;;;5113686;28;20047;-59
2021/12/12 08:57:20;;;;;;;25.83;13.88;;;6.30;99.90;;;;;;5113204;28;20258;-60
2021/12/12 08:59:48;;;;;;;30.45;15.68;;;6.30;99.90;;;;;;5112419;28;20105;-59
2021/12/12 09:02:17;;;;;;;28.75;16.27;;;6.40;99.90;;;;;;5113525;27;20392;-59
2021/12/12 09:04:48;;;;;;;32.00;16.23;;;6.40;99.90;;;;;;5112093;28;20044;-60
2021/12/12 09:07:27;;;;;;;29.58;16.25;;;6.40;99.90;;;;;;5112977;28;20048;-59
2021/12/12 09:10:01;;;;;;;31.63;17.52;;;6.40;99.90;;;;;;5128712;27;20114;-60
2021/12/12 09:12:34;;;;;;;34.53;17.65;;;6.40;99.90;;;;;;5112794;28;20130;-59
2021/12/12 09:15:06;;;;;;;30.30;16.70;;;6.50;99.90;;;;;;5112705;28;20050;-58
2021/12/12 09:17:39;;;;;;;32.38;17.48;;;6.60;99.90;;;;;;5112984;28;20051;-59
2021/12/12 09:20:21;;;;;;;22.15;12.98;;;6.50;99.90;;;;;;5113042;28;20087;-59
2021/12/12 09:23:11;;;;;;;33.95;17.77;;;6.60;99.90;;;;;;5112462;28;20393;-59
2021/12/12 09:25:49;;;;;;;33.70;17.13;;;6.70;99.90;;;;;;5111895;28;20055;-59
2021/12/12 09:28:21;;;;;;;34.72;17.92;;;6.70;99.90;;;;;;5113123;28;20067;-60
2021/12/12 09:30:47;;;;;;;42.05;18.48;;;6.70;99.90;;;;;;5112077;28;20407;-59
2021/12/12 09:33:20;;;;;;;37.03;18.58;;;6.70;99.90;;;;;;5111666;28;20056;-58
2021/12/12 09:35:54;;;;;;;43.80;19.00;;;6.70;99.90;;;;;;5113072;28;20051;-59
2021/12/12 09:38:25;;;;;;;44.92;20.05;;;6.70;99.90;;;;;;5111634;28;20122;-59
2021/12/12 09:41:03;;;;;;;41.60;19.58;;;6.70;99.90;;;;;;5112680;27;20384;-59
2021/12/12 09:44:03;;;;;;;42.22;19.95;;;6.70;99.90;;;;;;5111487;28;20047;-59
2021/12/12 09:47:12;;;;;;;48.40;19.08;;;6.80;99.90;;;;;;5111671;28;20036;-60
2021/12/12 09:53:13;;;;;;;52.38;21.17;;;6.90;99.90;;;;;;5112606;27;20105;-59
2021/12/12 09:56:11;;;;;;;51.08;21.58;;;6.90;99.90;;;;;;5112567;28;20070;-60
2021/12/12 09:58:43;;;;;;;54.53;23.20;;;6.90;99.90;;;;;;5112566;28;20411;-60
2021/12/12 10:01:57;;;;;;;53.33;22.42;;;7.00;99.90;;;;;;5112135;28;20044;-61
2021/12/12 10:04:28;;;;;;;64.95;24.42;;;7.00;99.90;;;;;;5048965;28;20068;-60
2021/12/12 10:07:25;;;;;;;60.03;25.15;;;7.00;99.90;;;;;;5048879;28;20053;-60
2021/12/12 10:09:59;;;;;;;64.25;24.00;;;7.10;99.90;;;;;;5098470;28;20467;-59
2021/12/12 10:12:36;;;;;;;;;;;7.10;99.90;;;;;;5112775;28;20050;-59
2021/12/12 10:15:11;;;;;;;78.40;26.25;;;7.10;99.90;;;;;;5110675;28;19985;-61
2021/12/12 10:17:52;;;;;;;64.35;24.35;;;7.20;99.90;;;;;;5111329;28;20108;-59
2021/12/12 10:20:24;;;;;;;67.05;24.63;;;7.20;99.90;;;;;;5111965;28;20047;-59
2021/12/12 10:23:14;;;;;;;78.47;26.05;;;7.30;99.90;;;;;;5112111;28;20396;-59
2021/12/12 10:25:53;;;;;;;72.57;26.38;;;7.30;99.90;;;;;;5110502;28;20133;-58
2021/12/12 10:28:19;;;;;;;76.78;28.80;;;7.30;99.90;;;;;;5127685;27;20149;-59
2021/12/12 10:31:13;;;;;;;65.90;26.48;;;7.40;99.90;;;;;;5112059;28;20043;-58
2021/12/12 10:33:59;;;;;;;69.70;25.77;;;7.40;99.90;;;;;;5109608;28;20058;-60
2021/12/12 10:36:51;;;;;;;66.03;23.92;;;7.40;99.90;;;;;;5127853;27;20285;-59
2021/12/12 10:39:32;;;;;;;62.80;24.55;;;7.50;99.90;;;;;;5087497;28;20078;-60
2021/12/12 10:42:08;;;;;;;60.70;23.60;;;7.50;99.90;;;;;;5112081;28;20039;-60
2021/12/12 10:44:58;;;;;;;68.05;25.45;;;7.50;99.90;;;;;;5111959;28;20043;-60
2021/12/12 10:47:35;;;;;;;75.47;25.73;;;7.60;99.90;;;;;;5110279;28;20040;-60
2021/12/12 10:50:19;;;;;;;59.25;22.92;;;7.60;99.90;;;;;;5111626;28;20130;-60
2021/12/12 10:53:01;;;;;;;62.22;23.50;;;7.60;99.90;;;;;;5110737;28;20047;-58
2021/12/12 10:55:39;;;;;;;62.05;23.77;;;7.70;99.90;;;;;;5110775;28;20051;-59
2021/12/12 10:58:25;;;;;;;61.60;22.15;;;7.70;99.90;;;;;;5127373;28;20039;-60
2021/12/12 11:01:01;;;;;;;63.08;24.23;;;7.70;99.90;;;;;;5111656;28;20052;-60
2021/12/12 11:03:34;;;;;;;66.50;24.23;;;7.80;99.90;;;;;;5110346;28;20048;-59
2021/12/12 11:06:08;;;;;;;62.22;24.33;;;7.80;99.90;;;;;;5111483;28;20058;-59
2021/12/12 11:08:57;;;;;;;59.83;23.43;;;7.80;99.90;;;;;;5111854;28;20136;-60
2021/12/12 11:11:27;;;;;;;66.78;25.08;;;7.80;99.90;;;;;;5127458;28;20403;-59
2021/12/12 11:14:11;;;;;;;58.55;21.42;;;7.90;99.90;;;;;;5111573;28;20393;-59
2021/12/12 11:16:44;;;;;;;57.20;21.60;;;7.90;99.90;;;;;;5110632;28;20053;-59
2021/12/12 11:19:20;;;;;;;53.53;20.00;;;7.90;99.90;;;;;;5110390;28;20047;-60
2021/12/12 11:21:53;;;;;;;55.50;20.92;;;8.00;99.90;;;;;;5111608;28;20130;-59
2021/12/12 11:24:34;;;;;;;65.63;23.33;;;8.00;99.90;;;;;;5111258;28;20050;-59
2021/12/12 11:27:08;;;;;;;52.40;21.17;;;8.00;99.90;;;;;;5111584;28;20116;-60
2021/12/12 11:29:47;;;;;;;55.42;20.80;;;8.00;99.90;;;;;;5110559;28;20048;-60
2021/12/12 11:32:20;;;;;;;46.97;18.73;;;8.10;99.90;;;;;;5110855;28;20480;-60
2021/12/12 11:34:49;;;;;;;45.45;18.42;;;8.10;99.90;;;;;;5110378;28;20389;-58
2021/12/12 11:37:35;;;;;;;45.70;18.30;;;8.20;99.90;;;;;;5115381;28;20048;-58
2021/12/12 11:40:18;;;;;;;42.45;18.08;;;8.20;99.90;;;;;;5131218;27;20051;-59
2021/12/12 11:43:03;;;;;;;45.25;17.08;;;8.30;99.90;;;;;;5115252;28;20051;-59
2021/12/12 11:45:45;;;;;;;43.38;18.58;;;8.30;99.90;;;;;;5113711;28;20055;-60
2021/12/12 11:48:17;;;;;;;44.33;17.95;;;8.40;99.90;;;;;;5113537;28;20055;-60
2021/12/12 11:50:51;;;;;;;46.22;18.50;;;8.40;99.90;;;;;;5113824;28;20159;-60
2021/12/12 11:53:39;;;;;;;39.47;17.00;;;8.40;99.90;;;;;;5113729;28;20051;-60
2021/12/12 11:56:15;;;;;;;43.42;16.98;;;8.40;99.90;;;;;;5114614;28;20504;-59
2021/12/12 11:58:59;;;;;;;42.13;18.40;;;8.60;99.90;;;;;;5115036;28;20525;-59
2021/12/12 12:01:51;;;;;;;41.33;19.77;;;8.50;99.90;;;;;;5114627;28;20400;-60
2021/12/12 12:04:35;;;;;;;43.75;16.65;;;8.60;99.90;;;;;;5113209;28;20082;-59
2021/12/12 12:07:16;;;;;;;39.65;16.05;;;8.60;99.90;;;;;;5113460;28;20087;-59
2021/12/12 12:09:54;;;;;;;43.60;18.25;;;8.60;99.90;;;;;;5114860;27;20058;-59
2021/12/12 12:12:29;;;;;;;41.65;15.65;;;8.60;99.90;;;;;;5114521;28;20044;-59
2021/12/12 12:15:25;;;;;;;38.30;16.08;;;8.60;99.90;;;;;;5114638;28;20203;-60
2021/12/12 12:18:06;;;;;;;35.53;15.32;;;8.70;99.90;;;;;;5114523;28;20043;-59
2021/12/12 12:20:57;;;;;;;37.55;16.95;;;8.70;99.90;;;;;;5114358;28;20090;-59
2021/12/12 12:23:41;;;;;;;34.72;16.20;;;8.70;99.90;;;;;;5114133;28;20046;-60
2021/12/12 12:29:28;;;;;;;38.72;15.32;;;8.70;99.90;;;;;;5114418;28;20051;-59
2021/12/12 12:32:12;;;;;;;;;;;8.70;99.90;;;;;;5114411;28;20489;-60
2021/12/12 12:35:15;;;;;;;34.50;16.30;;;8.80;99.90;;;;;;5114147;28;20392;-60
2021/12/12 12:38:22;;;;;;;34.00;13.98;;;8.70;99.90;;;;;;5114383;28;20047;-61
2021/12/12 12:41:25;;;;;;;37.33;15.48;;;8.70;99.90;;;;;;5114029;28;20209;-61
2021/12/12 12:44:29;;;;;;;39.45;17.13;;;8.80;99.90;;;;;;5113042;28;20433;-60
2021/12/12 12:47:48;;;;;;;36.10;14.73;;;8.80;99.90;;;;;;5113241;28;20070;-61
2021/12/12 12:50:51;;;;;;;31.65;14.40;;;8.80;99.90;;;;;;5112190;28;20044;-62
2021/12/12 12:53:38;;;;;;;34.95;15.23;;;8.80;99.90;;;;;;5113604;28;20043;-59
2021/12/12 12:56:28;;;;;;;33.70;15.02;;;8.80;99.90;;;;;;5112749;28;20052;-58
2021/12/12 12:58:54;;;;;;;35.78;14.80;;;8.80;99.90;;;;;;5112518;28;20047;-59
2021/12/12 13:01:42;;;;;;;38.63;14.80;;;8.80;99.90;;;;;;5113466;28;20468;-59
2021/12/12 13:04:21;;;;;;;30.08;13.75;;;8.90;99.90;;;;;;5112497;28;20116;-59
2021/12/12 13:06:57;;;;;;;31.67;13.13;;;8.90;99.90;;;;;;5112400;28;20134;-59
2021/12/12 13:09:45;;;;;;;31.30;14.35;;;8.90;99.90;;;;;;5112755;28;20054;-59
2021/12/12 13:12:45;;;;;;;28.08;12.70;;;8.90;99.90;;;;;;5113481;28;20539;-59
2021/12/12 13:15:39;;;;;;;28.63;13.15;;;8.90;99.90;;;;;;5113388;28;20079;-59
2021/12/12 13:18:36;;;;;;;30.13;13.18;;;8.90;99.90;;;;;;5113304;28;20047;-60
2021/12/12 13:21:37;;;;;;;33.03;13.95;;;8.90;99.90;;;;;;5111782;28;20131;-59
2021/12/12 13:24:21;;;;;;;31.88;13.57;;;9.00;99.90;;;;;;5111831;28;20389;-60
2021/12/12 13:27:27;;;;;;;30.83;13.55;;;9.00;99.90;;;;;;5111984;28;20150;-61
2021/12/12 13:30:05;;;;;;;34.78;14.40;;;9.00;99.90;;;;;;5111221;28;20081;-61
2021/12/12 13:32:46;;;;;;;28.33;13.85;;;9.00;99.90;;;;;;5111156;28;20134;-60
2021/12/12 13:35:15;;;;;;;30.10;14.02;;;9.00;99.90;;;;;;5110219;28;20519;-60
2021/12/12 13:38:07;;;;;;;30.92;14.13;;;9.00;99.90;;;;;;5109611;28;20101;-61